Terminal Aerodrome Forecast
Issued by NWS Knoxville/Tri Cities, TN

Home | Current Version | Previous Version | Text Only | Print | Product List | Glossary On
Versions: 1 2 3 4 5 6 7 8 9 10 11 12 13 14 15 16 17 18 19 20 21 22 23 24 25 26 27 28
000
FTUS44 KMRX 260948 AAA
TAFTRI
TAF AMD
KTRI 260948Z 2610/2706 15006KT P6SM SCT070 BKN150
     FM261100 VRB03KT 6SM -SHRA BKN050 OVC070
     FM261500 19011G16KT P6SM VCTS BKN050CB
     FM262100 20010KT P6SM VCSH BKN050
     FM270200 VRB02KT P6SM SCT060 BKN080=

USA.gov is the U.S. government's official web portal to all federal, state and local government web resources and services.